Time;durP1;ratioP1;P1;durP2;ratioP2;P2;SDS_P1;SDS_P2;PMS_P1;PMS_P2;Temp;Humidity;BMP_temperature;BMP_pressure;BME280_temperature;BME280_humidity;BME280_pressure;Samples;Min_cycle;Max_cycle;Signal;HPM_P1;HPM_P2
2022/09/28 00:01:22;;;;;;;4.78;2.15;;;18.80;60.70;;;;;;5056789;28;20037;-82
2022/09/28 00:03:51;;;;;;;3.80;2.30;;;18.80;60.70;;;;;;5056590;28;20028;-82
2022/09/28 00:06:19;;;;;;;3.63;2.35;;;18.80;61.00;;;;;;5057301;28;20031;-81
2022/09/28 00:08:45;;;;;;;3.78;2.60;;;18.80;61.20;;;;;;5057042;28;20024;-82
2022/09/28 00:11:14;;;;;;;3.97;2.38;;;19.00;60.40;;;;;;5057736;28;20105;-82
2022/09/28 00:13:41;;;;;;;4.40;2.45;;;19.00;60.00;;;;;;5075744;28;20078;-85
2022/09/28 00:16:14;;;;;;;3.42;2.10;;;18.90;60.50;;;;;;5057892;28;20028;-82
2022/09/28 00:18:40;;;;;;;3.83;2.08;;;19.00;61.00;;;;;;5075162;28;20078;-82
2022/09/28 00:21:10;;;;;;;4.32;2.40;;;19.30;59.80;;;;;;5074840;28;20041;-83
2022/09/28 00:24:11;;;;;;;3.50;2.08;;;19.40;59.50;;;;;;5068369;28;20044;-83
2022/09/28 00:26:26;;;;;;;5.70;2.45;;;19.60;59.10;;;;;;5069491;28;20040;-82
2022/09/28 00:28:53;;;;;;;4.20;2.20;;;19.70;59.50;;;;;;5055910;28;20492;-81
2022/09/28 00:31:19;;;;;;;3.63;2.10;;;19.70;59.00;;;;;;5056128;28;20123;-83
2022/09/28 00:33:49;;;;;;;3.63;2.38;;;19.80;59.00;;;;;;5056252;28;20585;-82
2022/09/28 00:36:15;;;;;;;3.03;2.13;;;19.80;58.70;;;;;;5053144;28;20055;-83
2022/09/28 00:38:40;;;;;;;3.55;2.30;;;19.70;58.90;;;;;;5056125;28;20111;-82
2022/09/28 00:41:07;;;;;;;5.70;2.63;;;19.60;59.30;;;;;;5056460;28;20032;-83
2022/09/28 00:43:32;;;;;;;3.58;2.30;;;19.50;59.90;;;;;;5056785;28;20036;-82
2022/09/28 00:46:20;;;;;;;3.92;2.33;;;19.40;59.30;;;;;;5073954;28;20028;-82
2022/09/28 00:48:55;;;;;;;3.70;2.45;;;19.40;59.00;;;;;;5053142;28;20040;-82
2022/09/28 00:51:23;;;;;;;3.95;2.20;;;19.30;58.90;;;;;;5063998;28;20043;-81
2022/09/28 00:53:49;;;;;;;3.35;2.25;;;19.20;59.50;;;;;;5053227;28;20021;-83
2022/09/28 00:56:20;;;;;;;4.13;2.00;;;19.00;59.10;;;;;;5048838;28;20040;-88
2022/09/28 00:58:50;;;;;;;3.75;1.85;;;18.90;59.40;;;;;;5073990;28;20125;-81
2022/09/28 01:01:16;;;;;;;4.18;1.90;;;18.80;59.90;;;;;;5055397;28;20052;-82
2022/09/28 01:03:44;;;;;;;3.42;1.95;;;18.60;60.30;;;;;;5068852;28;20152;-82
2022/09/28 01:06:20;;;;;;;6.28;5.78;;;18.50;59.80;;;;;;5052784;28;20033;-79
2022/09/28 01:08:50;;;;;;;3.20;2.00;;;18.40;60.20;;;;;;5056831;28;20012;-79
2022/09/28 01:11:16;;;;;;;4.50;2.08;;;18.50;60.00;;;;;;5056132;28;20127;-83
2022/09/28 01:13:42;;;;;;;3.53;2.00;;;18.50;59.70;;;;;;5056670;28;20088;-84
2022/09/28 01:16:19;;;;;;;3.47;1.90;;;18.60;59.80;;;;;;5055868;28;20035;-85
2022/09/28 01:19:03;;;;;;;2.92;1.85;;;18.50;59.40;;;;;;5056040;28;20028;-82
2022/09/28 01:21:42;;;;;;;3.15;1.90;;;18.00;60.00;;;;;;5065054;28;20076;-81
2022/09/28 01:24:39;;;;;;;3.20;1.80;;;17.90;60.40;;;;;;5056641;28;20467;-85
2022/09/28 01:27:28;;;;;;;3.78;1.85;;;18.10;60.20;;;;;;5067288;28;20028;-81
2022/09/28 01:30:07;;;;;;;4.70;2.20;;;18.40;59.30;;;;;;5074308;28;20028;-82
2022/09/28 01:32:46;;;;;;;3.58;1.90;;;18.60;59.30;;;;;;5051496;28;20055;-82
2022/09/28 01:35:21;;;;;;;4.18;1.80;;;18.60;58.90;;;;;;5052360;28;20117;-83
2022/09/28 01:38:00;;;;;;;3.85;1.80;;;18.60;58.80;;;;;;5055255;28;20028;-83
2022/09/28 01:40:27;;;;;;;4.18;2.50;;;18.50;58.70;;;;;;5055410;28;20036;-87
2022/09/28 01:43:00;;;;;;;3.30;1.98;;;18.60;58.70;;;;;;5055383;28;20467;-82
2022/09/28 01:45:47;;;;;;;3.80;2.03;;;18.70;58.90;;;;;;5055595;28;20029;-90
2022/09/28 01:48:18;;;;;;;12.82;5.53;;;18.70;58.80;;;;;;5055745;28;20079;-83
2022/09/28 01:50:47;;;;;;;3.70;2.10;;;18.60;58.40;;;;;;5053575;28;20052;-83
2022/09/28 01:53:22;;;;;;;3.55;2.00;;;18.60;58.70;;;;;;5070551;28;20416;-84
2022/09/28 01:55:53;;;;;;;5.00;2.80;;;18.50;58.60;;;;;;5055978;28;20032;-84
2022/09/28 01:58:24;;;;;;;;;;;18.60;58.20;;;;;;5056041;28;20040;-85
2022/09/28 02:00:58;;;;;;;8.98;4.90;;;18.70;58.10;;;;;;5070210;28;21403;-84
2022/09/28 02:03:32;;;;;;;12.95;6.57;;;18.50;58.60;;;;;;5048887;28;20036;-84
2022/09/28 02:06:19;;;;;;;11.60;5.20;;;18.20;59.00;;;;;;5047268;28;20032;-85
2022/09/28 02:08:52;;;;;;;10.10;4.68;;;18.30;58.50;;;;;;5056125;28;20024;-84
2022/09/28 02:11:20;;;;;;;7.55;3.40;;;18.00;59.20;;;;;;5055537;28;20024;-90
2022/09/28 02:14:05;;;;;;;8.13;4.25;;;17.70;60.20;;;;;;5056223;28;20085;-89
2022/09/28 02:16:34;;;;;;;10.07;4.78;;;17.60;60.00;;;;;;5051580;28;20476;-82
2022/09/28 02:19:00;;;;;;;6.13;3.20;;;17.60;60.10;;;;;;5055312;28;20047;-85
2022/09/28 02:21:52;;;;;;;4.07;2.20;;;17.50;60.30;;;;;;5055799;28;20044;-87
2022/09/28 02:24:26;;;;;;;9.20;4.30;;;17.60;60.30;;;;;;5074007;28;20024;-88
2022/09/28 02:26:58;;;;;;;8.30;3.50;;;17.60;60.10;;;;;;5055595;28;20078;-91
2022/09/28 02:29:24;;;;;;;8.93;3.90;;;17.70;60.10;;;;;;5056125;28;20024;-85
2022/09/28 02:31:50;;;;;;;3.88;2.08;;;17.80;59.70;;;;;;5056615;28;20094;-80
2022/09/28 02:34:16;;;;;;;11.90;3.60;;;17.30;59.80;;;;;;5054252;28;20031;-82
2022/09/28 02:36:44;;;;;;;5.50;2.58;;;17.20;60.90;;;;;;5055378;28;20020;-88
2022/09/28 02:39:15;;;;;;;5.20;2.20;;;17.10;60.90;;;;;;5055982;28;20020;-92
2022/09/28 02:41:59;;;;;;;4.45;2.00;;;17.10;60.60;;;;;;5055137;28;20037;-88
2022/09/28 02:45:02;;;;;;;3.45;2.10;;;17.30;61.20;;;;;;5049847;28;20028;-81
2022/09/28 02:47:59;;;;;;;5.20;2.40;;;17.60;60.10;;;;;;5072745;28;20032;-81
2022/09/28 02:50:43;;;;;;;5.30;2.30;;;17.60;59.60;;;;;;5055888;28;20027;-86
2022/09/28 02:53:33;;;;;;;6.13;2.30;;;17.60;60.10;;;;;;5073643;28;20052;-83
2022/09/28 02:56:46;;;;;;;4.27;2.13;;;17.60;59.70;;;;;;5055874;28;20116;-86
2022/09/28 02:59:14;;;;;;;5.05;2.30;;;17.40;60.60;;;;;;4995887;28;20064;-81
2022/09/28 03:01:42;;;;;;;3.55;1.83;;;17.30;61.10;;;;;;5012090;28;20053;-86
2022/09/28 03:04:21;;;;;;;3.90;2.10;;;17.10;61.20;;;;;;4995295;28;20034;-84
2022/09/28 03:07:15;;;;;;;3.67;2.03;;;17.00;61.30;;;;;;4995322;28;20500;-90
2022/09/28 03:09:55;;;;;;;6.65;3.25;;;16.90;61.70;;;;;;4935164;29;20036;-87
2022/09/28 03:12:23;;;;;;;12.83;6.40;;;17.00;61.10;;;;;;4918401;29;20039;-87
2022/09/28 03:15:18;;;;;;;8.32;3.85;;;17.10;61.40;;;;;;4918531;29;20043;-86
2022/09/28 03:17:43;;;;;;;4.05;2.00;;;17.20;61.20;;;;;;4927448;29;20127;-82
2022/09/28 03:20:09;;;;;;;4.50;2.30;;;17.30;60.40;;;;;;4933535;29;20051;-83
2022/09/28 03:22:35;;;;;;;4.28;2.10;;;17.40;60.40;;;;;;4934088;29;20044;-81
2022/09/28 03:25:01;;;;;;;5.85;2.88;;;17.50;59.80;;;;;;4933525;29;20027;-81
2022/09/28 03:27:27;;;;;;;6.03;3.03;;;17.50;59.90;;;;;;4934294;29;20032;-79
2022/09/28 03:29:52;;;;;;;4.63;2.33;;;17.20;60.30;;;;;;4932343;29;20035;-81
2022/09/28 03:32:18;;;;;;;5.20;2.22;;;17.10;60.70;;;;;;4933215;29;20432;-81
2022/09/28 03:34:44;;;;;;;8.82;4.63;;;17.30;60.60;;;;;;4950205;28;20473;-83
2022/09/28 03:37:09;;;;;;;9.90;3.10;;;17.30;59.90;;;;;;4974858;28;20077;-88
2022/09/28 03:39:35;;;;;;;5.20;2.22;;;17.10;60.30;;;;;;4975435;28;20034;-82
2022/09/28 03:42:01;;;;;;;3.83;2.17;;;16.90;60.50;;;;;;4974938;28;20034;-87
2022/09/28 03:44:27;;;;;;;4.60;2.60;;;16.90;60.90;;;;;;4983331;28;20099;-84
2022/09/28 03:46:53;;;;;;;6.57;2.30;;;17.00;60.60;;;;;;5016718;28;20099;-85
2022/09/28 03:49:19;;;;;;;4.85;2.20;;;17.20;60.00;;;;;;5051887;28;20031;-90
2022/09/28 03:51:47;;;;;;;3.65;2.00;;;17.40;60.40;;;;;;5057431;28;20024;-88
2022/09/28 03:54:13;;;;;;;5.95;2.40;;;17.30;60.10;;;;;;5075720;28;20593;-82
2022/09/28 03:56:40;;;;;;;4.07;2.50;;;17.20;60.30;;;;;;5058073;28;20111;-87
2022/09/28 03:59:06;;;;;;;4.85;2.05;;;17.30;60.00;;;;;;5058267;28;20032;-85
2022/09/28 04:01:32;;;;;;;4.80;2.22;;;17.10;60.50;;;;;;5075434;28;20380;-82
2022/09/28 04:03:58;;;;;;;3.80;2.40;;;17.20;60.60;;;;;;5054196;28;20542;-88
2022/09/28 04:06:24;;;;;;;4.28;2.28;;;17.30;60.50;;;;;;5047987;28;20115;-88
2022/09/28 04:08:50;;;;;;;3.97;2.25;;;17.10;61.00;;;;;;5041716;28;20074;-86
2022/09/28 04:11:16;;;;;;;3.75;2.28;;;17.30;60.80;;;;;;5058477;28;20029;-86
2022/09/28 04:13:41;;;;;;;5.47;2.50;;;17.10;60.80;;;;;;5055598;28;20051;-80
2022/09/28 04:16:09;;;;;;;3.13;1.90;;;17.30;60.30;;;;;;5038109;28;20033;-81
2022/09/28 04:18:35;;;;;;;6.00;2.40;;;17.40;60.00;;;;;;5054476;28;20033;-88
2022/09/28 04:21:03;;;;;;;4.90;2.05;;;17.40;60.00;;;;;;5062129;28;20068;-83
2022/09/28 04:23:29;;;;;;;3.83;2.10;;;17.40;60.00;;;;;;5072369;28;20017;-90
2022/09/28 04:25:55;;;;;;;4.07;2.20;;;17.40;59.70;;;;;;5045835;28;20033;-88
2022/09/28 04:31:09;;;;;;;3.85;2.20;;;17.50;59.80;;;;;;5070751;28;20036;-81
2022/09/28 04:33:36;;;;;;;3.00;1.98;;;17.60;59.50;;;;;;5057888;28;20078;-83
2022/09/28 04:36:01;;;;;;;3.03;1.90;;;17.60;59.70;;;;;;5058450;28;20040;-82
2022/09/28 04:38:27;;;;;;;3.30;2.10;;;17.50;59.40;;;;;;5038674;28;20025;-83
2022/09/28 04:40:53;;;;;;;4.80;2.00;;;17.50;59.10;;;;;;5042125;28;20064;-85
2022/09/28 04:43:19;;;;;;;3.80;1.90;;;17.50;59.40;;;;;;5039966;28;20103;-89
2022/09/28 04:45:44;;;;;;;3.00;1.90;;;17.40;59.50;;;;;;5038265;28;20029;-89
2022/09/28 04:48:10;;;;;;;4.00;2.00;;;17.60;59.50;;;;;;5051501;28;20023;-82
2022/09/28 04:50:35;;;;;;;3.13;2.05;;;17.80;58.70;;;;;;5057263;28;20029;-88
2022/09/28 04:53:01;;;;;;;3.40;1.88;;;17.80;58.60;;;;;;5051835;28;20431;-83
2022/09/28 04:55:31;;;;;;;2.95;1.83;;;17.80;58.80;;;;;;5044299;28;20369;-90
2022/09/28 04:58:01;;;;;;;3.60;2.20;;;17.70;59.00;;;;;;5057209;28;20017;-85
2022/09/28 05:00:28;;;;;;;3.58;1.90;;;17.70;59.00;;;;;;5054330;28;20416;-82
2022/09/28 05:02:54;;;;;;;5.05;2.00;;;17.80;58.90;;;;;;5036599;28;20075;-82
2022/09/28 05:05:20;;;;;;;4.22;2.08;;;17.90;59.10;;;;;;5055104;28;20033;-85
2022/09/28 05:07:46;;;;;;;4.45;2.00;;;18.00;58.80;;;;;;5056406;28;20028;-84
2022/09/28 05:10:12;;;;;;;4.00;1.92;;;18.10;58.30;;;;;;5037201;28;20391;-82
2022/09/28 05:12:38;;;;;;;3.67;2.10;;;18.10;58.60;;;;;;5049480;28;20024;-84
2022/09/28 05:15:04;;;;;;;5.15;1.90;;;18.20;58.50;;;;;;5062353;28;20025;-82
2022/09/28 05:17:30;;;;;;;4.18;2.13;;;18.20;58.20;;;;;;5041441;28;20039;-83
2022/09/28 05:19:56;;;;;;;2.90;1.80;;;18.20;58.30;;;;;;5059850;28;20471;-81
2022/09/28 05:22:22;;;;;;;5.28;2.08;;;18.00;58.40;;;;;;5041542;28;20055;-86
2022/09/28 05:24:48;;;;;;;4.72;2.00;;;17.90;58.40;;;;;;5049609;28;20117;-83
2022/09/28 05:27:13;;;;;;;3.35;2.00;;;17.80;59.40;;;;;;5047599;28;20479;-82
2022/09/28 05:29:39;;;;;;;3.55;2.00;;;17.90;59.20;;;;;;5042561;28;20083;-85
2022/09/28 05:32:05;;;;;;;3.25;2.10;;;18.20;58.50;;;;;;5043219;28;20507;-84
2022/09/28 05:34:30;;;;;;;4.38;2.20;;;18.10;58.40;;;;;;5043256;28;20439;-82
2022/09/28 05:36:56;;;;;;;4.55;2.20;;;18.00;58.70;;;;;;5045375;28;20032;-86
2022/09/28 05:39:22;;;;;;;4.60;2.10;;;18.10;58.70;;;;;;5076574;28;20090;-81
2022/09/28 05:41:47;;;;;;;7.63;3.70;;;18.20;58.50;;;;;;5063201;28;20037;-84
2022/09/28 05:44:13;;;;;;;4.38;2.17;;;18.20;58.90;;;;;;5041806;28;20021;-82
2022/09/28 05:46:39;;;;;;;9.45;4.57;;;18.30;58.80;;;;;;5038181;28;20058;-82
2022/09/28 05:49:04;;;;;;;5.18;2.63;;;18.50;58.40;;;;;;5060710;28;20094;-80
2022/09/28 05:51:30;;;;;;;5.38;2.53;;;18.40;58.10;;;;;;5060424;28;20034;-86
2022/09/28 05:53:56;;;;;;;4.72;2.00;;;18.40;58.40;;;;;;5055253;28;20533;-82
2022/09/28 05:56:22;;;;;;;4.75;2.63;;;18.50;58.40;;;;;;5073790;28;20028;-87
2022/09/28 05:58:48;;;;;;;7.57;3.67;;;18.60;58.10;;;;;;5056148;28;20498;-82
2022/09/28 06:01:13;;;;;;;4.63;2.35;;;18.60;58.00;;;;;;5073967;28;20391;-86
2022/09/28 06:03:39;;;;;;;4.72;2.70;;;18.70;57.50;;;;;;5073773;28;20020;-90
2022/09/28 06:06:05;;;;;;;4.10;2.30;;;18.70;57.90;;;;;;5055483;28;20052;-82
2022/09/28 06:08:31;;;;;;;4.78;2.90;;;18.70;57.80;;;;;;5042162;28;20057;-85
2022/09/28 06:11:01;;;;;;;6.40;3.58;;;18.90;57.20;;;;;;5054081;28;20029;-88
2022/09/28 06:13:27;;;;;;;4.82;3.55;;;18.80;57.10;;;;;;5056144;28;20028;-82
2022/09/28 06:15:53;;;;;;;3.92;2.58;;;18.80;57.30;;;;;;5074042;28;20419;-86
2022/09/28 06:18:19;;;;;;;3.17;2.08;;;18.80;57.30;;;;;;5055907;28;20502;-83
2022/09/28 06:20:48;;;;;;;5.20;2.55;;;18.90;57.60;;;;;;5051827;28;20055;-86
2022/09/28 06:23:13;;;;;;;3.95;2.42;;;19.20;57.20;;;;;;5053456;28;20033;-81
2022/09/28 06:25:39;;;;;;;3.28;1.92;;;19.50;57.00;;;;;;5052100;28;20371;-84
2022/09/28 06:28:14;;;;;;;4.05;2.10;;;19.60;56.80;;;;;;5052072;28;20082;-83
2022/09/28 06:30:42;;;;;;;3.08;1.80;;;19.90;56.20;;;;;;5053589;28;20082;-81
2022/09/28 06:33:11;;;;;;;5.03;1.95;;;19.90;56.70;;;;;;5081602;28;20057;-84
2022/09/28 06:35:37;;;;;;;12.05;7.18;;;20.00;56.50;;;;;;5052124;28;20051;-83
2022/09/28 06:38:03;;;;;;;7.93;4.55;;;20.00;55.80;;;;;;5052980;28;20468;-88
2022/09/28 06:40:29;;;;;;;4.65;2.40;;;20.10;56.00;;;;;;5052213;28;20039;-80
2022/09/28 06:42:56;;;;;;;5.93;3.65;;;20.00;55.50;;;;;;5047278;28;20034;-79
2022/09/28 06:45:24;;;;;;;4.13;2.40;;;20.00;55.40;;;;;;5035440;28;20431;-81
2022/09/28 06:48:00;;;;;;;6.13;3.53;;;19.90;56.10;;;;;;5053075;28;20021;-84
2022/09/28 06:50:36;;;;;;;3.25;1.92;;;19.90;56.20;;;;;;5053127;28;20035;-83
2022/09/28 06:53:08;;;;;;;4.05;2.40;;;20.00;56.50;;;;;;5052890;28;20061;-79
2022/09/28 06:55:37;;;;;;;4.75;2.60;;;20.30;55.70;;;;;;5051902;28;20029;-88
2022/09/28 06:58:05;;;;;;;11.70;5.32;;;20.50;55.30;;;;;;5051822;28;20025;-84
2022/09/28 07:00:39;;;;;;;5.38;2.70;;;20.50;55.00;;;;;;5051309;28;20684;-83
2022/09/28 07:03:16;;;;;;;4.75;1.83;;;20.70;55.20;;;;;;5051616;28;20399;-80
2022/09/28 07:05:46;;;;;;;3.15;1.65;;;20.90;54.30;;;;;;5052851;28;20052;-81
2022/09/28 07:08:12;;;;;;;6.03;2.50;;;21.10;54.30;;;;;;5050311;28;20090;-80
2022/09/28 07:10:48;;;;;;;3.95;1.95;;;21.20;54.50;;;;;;5050340;28;20116;-77
2022/09/28 07:13:16;;;;;;;4.07;1.80;;;21.40;52.90;;;;;;5049415;28;20495;-86
2022/09/28 07:15:42;;;;;;;5.57;2.40;;;21.40;53.30;;;;;;5051817;28;20025;-82
2022/09/28 07:18:09;;;;;;;5.90;1.75;;;21.50;53.90;;;;;;5052959;28;20048;-83
2022/09/28 07:20:36;;;;;;;2.50;1.50;;;21.50;53.20;;;;;;5060040;28;20514;-81
2022/09/28 07:23:04;;;;;;;2.58;1.42;;;21.60;53.30;;;;;;5058910;28;20498;-87
2022/09/28 07:25:31;;;;;;;5.30;1.65;;;21.60;53.30;;;;;;5076504;28;20119;-81
2022/09/28 07:28:00;;;;;;;2.65;1.42;;;21.60;53.00;;;;;;5076662;28;20027;-83
2022/09/28 07:30:28;;;;;;;2.20;1.33;;;21.70;53.20;;;;;;5058645;28;20060;-81
2022/09/28 07:32:54;;;;;;;4.95;1.38;;;21.90;53.70;;;;;;5075852;28;20027;-81
2022/09/28 07:35:21;;;;;;;3.53;1.48;;;22.10;53.20;;;;;;5058438;28;20036;-81
2022/09/28 07:37:47;;;;;;;4.18;1.70;;;22.40;53.20;;;;;;5058441;28;20021;-80
2022/09/28 07:43:05;;;;;;;2.78;1.50;;;22.60;50.60;;;;;;5076456;28;20086;-80
2022/09/28 07:45:34;;;;;;;3.67;1.30;;;22.70;51.50;;;;;;5058043;28;20054;-83
2022/09/28 07:48:00;;;;;;;6.68;1.40;;;22.70;50.10;;;;;;5058308;28;20056;-80
2022/09/28 07:50:26;;;;;;;2.45;1.30;;;22.80;49.50;;;;;;5075520;28;20035;-81
2022/09/28 07:52:52;;;;;;;2.50;1.40;;;23.00;50.60;;;;;;5057576;28;20020;-84
2022/09/28 07:55:17;;;;;;;2.90;1.50;;;23.40;51.30;;;;;;5058411;28;20035;-83
2022/09/28 07:57:45;;;;;;;4.70;1.40;;;23.90;49.80;;;;;;5058126;28;20483;-80
2022/09/28 08:00:12;;;;;;;3.35;1.40;;;24.20;49.70;;;;;;5058615;28;20037;-81
2022/09/28 08:02:38;;;;;;;2.35;1.30;;;24.30;49.60;;;;;;5075972;28;20036;-92
2022/09/28 08:05:04;;;;;;;2.75;1.27;;;24.30;49.30;;;;;;5057948;28;20024;-89
2022/09/28 08:07:31;;;;;;;2.78;1.30;;;24.00;48.60;;;;;;5075634;28;20017;-86
2022/09/28 08:09:57;;;;;;;2.35;1.30;;;23.70;50.00;;;;;;5057502;28;20024;-86
2022/09/28 08:12:22;;;;;;;2.22;1.30;;;23.60;49.70;;;;;;5057833;28;20040;-85
2022/09/28 08:14:49;;;;;;;3.40;1.27;;;23.60;50.30;;;;;;5057718;28;20112;-85
2022/09/28 08:17:15;;;;;;;3.17;1.30;;;23.60;49.30;;;;;;5057498;28;20028;-83
2022/09/28 08:22:25;;;;;;;4.10;1.30;;;23.70;48.50;;;;;;5075317;28;20097;-81
2022/09/28 08:24:51;;;;;;;1.80;1.10;;;23.80;50.10;;;;;;5075121;28;20099;-86
2022/09/28 08:27:17;;;;;;;2.15;1.17;;;24.00;50.80;;;;;;5057282;28;20055;-82
2022/09/28 08:29:42;;;;;;;2.90;1.40;;;24.20;49.40;;;;;;5074514;28;20024;-84
2022/09/28 08:32:09;;;;;;;3.92;1.60;;;24.20;49.60;;;;;;5075370;28;20035;-84
2022/09/28 08:34:39;;;;;;;3.53;1.10;;;24.20;50.90;;;;;;5075331;28;20040;-86
2022/09/28 08:37:10;;;;;;;2.85;1.42;;;24.20;50.30;;;;;;5074771;28;20025;-85
2022/09/28 08:39:36;;;;;;;2.60;1.40;;;24.20;50.00;;;;;;5057274;28;20123;-81
2022/09/28 08:42:27;;;;;;;4.65;1.40;;;24.10;50.00;;;;;;5075097;28;20062;-82
2022/09/28 08:44:57;;;;;;;2.80;1.50;;;24.00;50.10;;;;;;5074807;28;20101;-81
2022/09/28 08:51:17;;;;;;;2.72;1.30;;;23.50;50.70;;;;;;5013238;28;20579;-79
2022/09/28 08:54:15;;;;;;;2.47;1.30;;;23.40;52.70;;;;;;4996953;28;20096;-80
2022/09/28 08:56:50;;;;;;;6.90;2.20;;;23.30;52.60;;;;;;4957799;28;20035;-79
2022/09/28 08:59:25;;;;;;;3.85;1.80;;;23.40;53.20;;;;;;4957825;28;20117;-84
2022/09/28 09:02:26;;;;;;;2.92;1.55;;;23.40;53.00;;;;;;4958236;28;20497;-88
2022/09/28 09:04:52;;;;;;;4.28;1.48;;;23.10;53.10;;;;;;4974282;28;20038;-87
2022/09/28 09:07:32;;;;;;;7.10;1.70;;;23.00;53.60;;;;;;4973752;28;20038;-81
2022/09/28 09:09:58;;;;;;;3.80;1.50;;;23.10;52.60;;;;;;4957606;28;20026;-83
2022/09/28 09:12:45;;;;;;;3.33;1.50;;;23.30;53.30;;;;;;4957273;28;20038;-82
2022/09/28 09:15:47;;;;;;;4.90;1.80;;;23.50;52.50;;;;;;4957487;28;20046;-92
2022/09/28 09:18:17;;;;;;;4.97;1.30;;;23.80;52.70;;;;;;4956947;28;20062;-80
2022/09/28 09:21:26;;;;;;;2.97;1.50;;;24.10;52.70;;;;;;4973649;28;20148;-82
2022/09/28 09:24:00;;;;;;;3.35;1.50;;;24.40;51.40;;;;;;4955787;28;20027;-81
2022/09/28 09:26:38;;;;;;;2.80;1.48;;;24.40;52.30;;;;;;4980926;28;20031;-82
2022/09/28 09:29:12;;;;;;;3.60;1.90;;;24.20;51.80;;;;;;4976693;28;20030;-83
2022/09/28 09:31:58;;;;;;;3.92;1.90;;;24.10;52.10;;;;;;4976645;28;20035;-87
2022/09/28 09:34:32;;;;;;;4.55;1.58;;;24.20;52.70;;;;;;5068243;28;20036;-83
2022/09/28 09:37:16;;;;;;;2.95;1.50;;;24.10;52.20;;;;;;5073948;28;20105;-84
2022/09/28 09:40:07;;;;;;;3.65;1.50;;;24.10;51.70;;;;;;5073787;28;20029;-84
2022/09/28 09:42:38;;;;;;;4.60;1.40;;;24.20;51.30;;;;;;5072900;28;20028;-80
2022/09/28 09:45:31;;;;;;;4.47;1.65;;;24.00;52.20;;;;;;5073680;28;20032;-82
2022/09/28 09:48:06;;;;;;;3.55;1.52;;;23.80;51.50;;;;;;5073535;28;20024;-81
2022/09/28 09:50:43;;;;;;;4.05;1.70;;;23.90;53.00;;;;;;5073401;28;20029;-81
2022/09/28 09:54:03;;;;;;;4.13;1.60;;;24.40;52.70;;;;;;5056253;28;20025;-89
2022/09/28 09:56:38;;;;;;;3.30;1.70;;;24.50;53.00;;;;;;4995669;28;20022;-87
2022/09/28 09:59:17;;;;;;;3.03;1.67;;;23.90;55.00;;;;;;5012111;28;20029;-81
2022/09/28 10:01:44;;;;;;;5.63;1.63;;;24.10;53.30;;;;;;5011990;28;20049;-86
2022/09/28 10:04:28;;;;;;;3.08;1.50;;;24.10;52.80;;;;;;5012267;28;20037;-86
2022/09/28 10:07:02;;;;;;;3.60;1.42;;;24.30;52.50;;;;;;5012085;28;20196;-91
2022/09/28 10:09:38;;;;;;;3.50;1.70;;;24.20;51.40;;;;;;5011607;28;20473;-86
2022/09/28 10:12:07;;;;;;;3.40;1.50;;;23.90;52.90;;;;;;4995962;28;20664;-92
2022/09/28 10:14:32;;;;;;;4.25;1.60;;;24.00;53.00;;;;;;5012137;28;20111;-79
2022/09/28 10:17:01;;;;;;;3.72;1.40;;;23.60;52.70;;;;;;5011661;28;20517;-80
2022/09/28 10:19:31;;;;;;;2.75;1.40;;;23.40;52.90;;;;;;5011887;28;20038;-85
2022/09/28 10:22:01;;;;;;;2.90;1.60;;;23.90;52.90;;;;;;5011481;28;20149;-86
2022/09/28 10:24:48;;;;;;;3.03;1.42;;;24.20;52.10;;;;;;5011428;28;20030;-86
2022/09/28 10:27:38;;;;;;;3.40;1.83;;;24.60;53.10;;;;;;5011742;28;20105;-87
2022/09/28 10:30:10;;;;;;;4.25;1.80;;;24.80;52.90;;;;;;5015843;28;20135;-81
2022/09/28 10:32:42;;;;;;;4.47;1.60;;;25.00;52.20;;;;;;5055039;28;20036;-82
2022/09/28 10:35:24;;;;;;;3.28;1.30;;;25.10;51.60;;;;;;5073187;28;20383;-85
2022/09/28 10:38:00;;;;;;;4.05;1.38;;;25.50;51.90;;;;;;5055656;28;20115;-92
2022/09/28 10:40:45;;;;;;;3.10;1.40;;;25.70;51.50;;;;;;5055261;28;20070;-85
2022/09/28 10:43:24;;;;;;;4.78;1.48;;;25.20;50.80;;;;;;5055219;28;20357;-86
2022/09/28 10:46:05;;;;;;;2.20;1.40;;;24.90;52.20;;;;;;5073200;28;20021;-83
2022/09/28 10:48:37;;;;;;;3.25;1.40;;;24.20;50.20;;;;;;5055358;28;20058;-85
2022/09/28 10:51:05;;;;;;;3.95;1.60;;;23.70;52.70;;;;;;5055672;28;20024;-81
2022/09/28 10:53:32;;;;;;;3.03;1.50;;;23.70;52.40;;;;;;5075795;28;20099;-84
2022/09/28 10:56:01;;;;;;;2.30;1.38;;;23.80;53.10;;;;;;5059553;28;20074;-88
2022/09/28 10:58:39;;;;;;;2.75;1.45;;;23.70;52.70;;;;;;5059706;28;20105;-82
2022/09/28 11:01:12;;;;;;;3.13;1.55;;;23.50;52.60;;;;;;5059142;28;20060;-81
2022/09/28 11:03:51;;;;;;;2.85;1.55;;;23.50;51.90;;;;;;5077245;28;20078;-90
2022/09/28 11:06:24;;;;;;;3.17;1.70;;;23.20;51.40;;;;;;5077544;28;20026;-81
2022/09/28 11:08:52;;;;;;;3.53;2.85;;;22.70;52.90;;;;;;5077448;28;20017;-84
2022/09/28 11:11:21;;;;;;;3.72;1.58;;;22.60;53.40;;;;;;5059244;28;20544;-88
2022/09/28 11:13:49;;;;;;;3.45;1.75;;;22.80;53.00;;;;;;5076999;28;20067;-84
2022/09/28 11:16:30;;;;;;;2.58;1.70;;;22.20;53.70;;;;;;5077270;28;20392;-83
2022/09/28 11:19:01;;;;;;;2.70;1.52;;;22.30;53.70;;;;;;5076852;28;20036;-83
2022/09/28 11:21:31;;;;;;;3.00;1.70;;;22.90;54.30;;;;;;5076420;28;20519;-87
2022/09/28 11:24:06;;;;;;;2.43;1.33;;;23.10;52.00;;;;;;5076923;28;20375;-88
2022/09/28 11:26:41;;;;;;;2.90;1.50;;;23.40;53.80;;;;;;5076563;28;20048;-84
2022/09/28 11:29:19;;;;;;;2.78;1.60;;;23.70;53.60;;;;;;5076571;28;20017;-88
2022/09/28 11:31:47;;;;;;;2.63;1.70;;;24.10;51.90;;;;;;5076475;28;20028;-83
2022/09/28 11:34:20;;;;;;;4.20;1.48;;;23.80;50.50;;;;;;5058980;28;20028;-85
2022/09/28 11:36:52;;;;;;;9.73;2.65;;;23.00;52.90;;;;;;5058804;28;20021;-89
2022/09/28 11:39:27;;;;;;;3.08;1.50;;;23.20;51.40;;;;;;5076454;28;20036;-84
2022/09/28 11:42:11;;;;;;;2.33;1.30;;;22.80;51.20;;;;;;5076646;28;20036;-86
2022/09/28 11:44:40;;;;;;;3.38;1.70;;;22.40;52.30;;;;;;5058740;28;20021;-92
2022/09/28 11:47:46;;;;;;;2.78;1.50;;;22.40;52.60;;;;;;5058772;28;20111;-84
2022/09/28 11:50:33;;;;;;;3.50;1.50;;;22.40;52.30;;;;;;5058503;28;20024;-88
2022/09/28 11:53:03;;;;;;;3.88;1.50;;;22.70;52.60;;;;;;5058373;28;20550;-93
2022/09/28 11:55:33;;;;;;;2.83;1.40;;;23.00;52.10;;;;;;5076400;28;20016;-86
2022/09/28 11:58:02;;;;;;;;;;;23.20;53.30;;;;;;5076230;28;20029;-82
2022/09/28 12:00:30;;;;;;;3.50;1.40;;;23.50;53.60;;;;;;5075764;28;19939;-84
2022/09/28 12:03:33;;;;;;;4.40;1.50;;;24.00;53.00;;;;;;5058084;28;20077;-85
2022/09/28 12:06:08;;;;;;;3.78;1.50;;;24.20;51.90;;;;;;5056914;28;20104;-86
2022/09/28 12:08:44;;;;;;;5.00;1.70;;;24.20;52.00;;;;;;5057973;28;20016;-87
2022/09/28 12:11:35;;;;;;;2.70;1.50;;;24.00;52.40;;;;;;5076217;28;20017;-86
2022/09/28 12:14:03;;;;;;;2.90;1.63;;;23.70;51.60;;;;;;5057482;28;20039;-86
2022/09/28 12:16:36;;;;;;;3.10;1.50;;;23.00;53.30;;;;;;5076135;28;20110;-86
2022/09/28 12:19:07;;;;;;;2.80;1.50;;;22.70;53.30;;;;;;5075889;28;20079;-82
2022/09/28 12:21:52;;;;;;;2.83;1.60;;;22.90;54.50;;;;;;5057767;28;20041;-83
2022/09/28 12:24:26;;;;;;;2.83;1.60;;;23.40;53.40;;;;;;5076212;28;20039;-85
2022/09/28 12:26:58;;;;;;;3.15;1.60;;;23.40;51.70;;;;;;5058832;28;20025;-91
2022/09/28 12:29:35;;;;;;;2.92;1.73;;;23.10;52.00;;;;;;5058307;28;20028;-89
2022/09/28 12:32:17;;;;;;;4.60;1.80;;;23.00;52.80;;;;;;5075455;28;20141;-81
2022/09/28 12:34:43;;;;;;;3.60;1.80;;;23.20;54.60;;;;;;5075691;28;20099;-90
2022/09/28 12:37:21;;;;;;;3.90;1.70;;;23.00;53.00;;;;;;5075485;28;20105;-82
2022/09/28 12:40:04;;;;;;;3.92;1.88;;;22.60;53.50;;;;;;5057654;28;20024;-85
2022/09/28 12:42:52;;;;;;;5.18;1.88;;;22.60;53.80;;;;;;5057665;28;20067;-88
2022/09/28 12:45:38;;;;;;;3.50;1.92;;;22.70;53.40;;;;;;5075012;28;20428;-86
2022/09/28 12:48:25;;;;;;;4.03;1.85;;;23.20;53.70;;;;;;5057469;28;20460;-87
2022/09/28 12:51:28;;;;;;;9.07;2.60;;;23.20;54.10;;;;;;5057222;28;20028;-91
2022/09/28 12:54:03;;;;;;;6.05;2.03;;;22.80;53.40;;;;;;5071968;28;20087;-82
2022/09/28 12:56:52;;;;;;;4.13;2.33;;;23.10;53.50;;;;;;5057116;28;20021;-82
2022/09/28 12:59:21;;;;;;;2.80;1.80;;;23.00;53.20;;;;;;5057160;28;20029;-87
2022/09/28 13:02:17;;;;;;;4.90;2.40;;;23.10;53.30;;;;;;5075460;28;20040;-84
2022/09/28 13:04:51;;;;;;;3.60;2.00;;;22.90;54.30;;;;;;5074697;28;20025;-80
2022/09/28 13:07:58;;;;;;;5.57;2.20;;;23.00;53.30;;;;;;5057478;28;20395;-85
2022/09/28 13:10:52;;;;;;;5.93;2.28;;;22.60;53.90;;;;;;5048896;28;20055;-92
2022/09/28 13:13:45;;;;;;;4.72;1.92;;;22.80;53.50;;;;;;5074816;28;20031;-85
2022/09/28 13:16:37;;;;;;;9.18;2.20;;;22.60;53.90;;;;;;5057284;28;20055;-85
2022/09/28 13:19:02;;;;;;;6.57;1.85;;;22.60;54.20;;;;;;5074339;28;20028;-80
2022/09/28 13:21:51;;;;;;;5.68;2.20;;;22.60;53.20;;;;;;5056487;28;20056;-85
2022/09/28 13:24:29;;;;;;;4.57;2.03;;;22.50;53.00;;;;;;5066231;28;20036;-88
2022/09/28 13:27:01;;;;;;;3.60;1.75;;;22.00;54.00;;;;;;5056537;28;20037;-84
2022/09/28 13:29:27;;;;;;;4.30;1.80;;;22.00;54.50;;;;;;5056612;28;20052;-82